createdAt,value
2022-09-13T00:02:06.030Z,16.50
2022-09-13T00:04:51.381Z,16.34
2022-09-13T00:07:36.282Z,16.33
2022-09-13T00:10:21.551Z,16.25
2022-09-13T00:13:07.662Z,16.28
2022-09-13T00:15:52.781Z,16.32
2022-09-13T00:18:37.819Z,16.31
2022-09-13T00:21:24.463Z,16.40
2022-09-13T00:24:09.591Z,16.40
2022-09-13T00:26:54.389Z,16.44
2022-09-13T00:29:39.109Z,16.35
2022-09-13T00:32:23.806Z,16.37
2022-09-13T00:35:09.089Z,16.51
2022-09-13T00:37:54.104Z,16.52
2022-09-13T00:40:38.992Z,16.52
2022-09-13T00:43:49.893Z,16.55
2022-09-13T00:46:43.667Z,16.62
2022-09-13T00:49:35.790Z,16.68
2022-09-13T00:52:24.484Z,16.80
2022-09-13T00:55:20.059Z,16.84
2022-09-13T00:58:13.401Z,16.97
2022-09-13T01:01:01.236Z,16.98
2022-09-13T01:03:48.758Z,16.96
2022-09-13T01:06:37.593Z,17.01
2022-09-13T01:09:23.855Z,17.11
2022-09-13T01:12:41.864Z,17.13
2022-09-13T01:15:27.284Z,17.12
2022-09-13T01:18:12.549Z,17.12
2022-09-13T01:21:03.493Z,17.12
2022-09-13T01:24:10.726Z,17.16
2022-09-13T01:27:10.829Z,17.28
2022-09-13T01:30:22.167Z,17.31
2022-09-13T01:33:41.333Z,17.37
2022-09-13T01:36:26.295Z,17.40
2022-09-13T01:39:17.669Z,17.42
2022-09-13T01:42:38.576Z,17.69
2022-09-13T01:45:43.156Z,17.61
2022-09-13T01:48:36.770Z,17.54
2022-09-13T01:51:46.995Z,17.53
2022-09-13T01:54:39.947Z,17.54
2022-09-13T01:57:33.124Z,17.50
2022-09-13T02:00:18.769Z,17.38
2022-09-13T02:03:14.127Z,17.35
2022-09-13T02:06:13.835Z,17.27
2022-09-13T02:09:10.264Z,17.28
2022-09-13T02:12:03.537Z,17.33
2022-09-13T02:14:58.659Z,17.22
2022-09-13T02:18:17.742Z,17.22
2022-09-13T02:21:12.454Z,17.15
2022-09-13T02:24:06.433Z,17.19
2022-09-13T02:26:55.386Z,16.93
2022-09-13T02:29:44.968Z,16.88
2022-09-13T02:32:44.084Z,16.73
2022-09-13T02:35:58.724Z,16.73
2022-09-13T02:39:06.308Z,16.74
2022-09-13T02:42:09.240Z,16.70
2022-09-13T02:44:58.560Z,16.63
2022-09-13T02:47:43.593Z,16.54
2022-09-13T02:50:46.942Z,16.62
2022-09-13T02:53:34.676Z,16.55
2022-09-13T02:56:47.424Z,16.58
2022-09-13T02:59:32.366Z,16.51
2022-09-13T03:02:21.837Z,16.59
2022-09-13T03:05:07.245Z,16.59
2022-09-13T03:07:53.126Z,16.55
2022-09-13T03:10:59.619Z,16.44
2022-09-13T03:13:53.339Z,16.36
2022-09-13T03:17:03.019Z,16.52
2022-09-13T03:20:05.727Z,16.48
2022-09-13T03:23:09.584Z,16.35
2022-09-13T03:26:27.267Z,16.41
2022-09-13T03:29:34.636Z,16.29
2022-09-13T03:32:36.491Z,16.26
2022-09-13T03:36:08.336Z,16.31
2022-09-13T03:39:02.170Z,16.36
2022-09-13T03:41:51.847Z,16.31
2022-09-13T03:44:40.169Z,16.34
2022-09-13T03:47:28.908Z,16.32
2022-09-13T03:50:19.246Z,16.37
2022-09-13T03:53:08.964Z,16.28
2022-09-13T03:55:54.121Z,16.04
2022-09-13T03:58:38.847Z,16.06
2022-09-13T04:01:24.893Z,16.14
2022-09-13T04:04:10.019Z,16.12
2022-09-13T04:06:54.816Z,16.21
2022-09-13T04:09:39.791Z,16.16
2022-09-13T04:12:24.873Z,16.18
2022-09-13T04:15:10.044Z,16.25
2022-09-13T04:17:54.746Z,16.18
2022-09-13T04:20:40.171Z,16.21
2022-09-13T04:23:27.306Z,16.28
2022-09-13T04:26:12.366Z,16.32
2022-09-13T04:28:57.358Z,16.29
2022-09-13T04:31:42.359Z,16.36
2022-09-13T04:34:27.749Z,16.23
2022-09-13T04:37:13.116Z,16.25
2022-09-13T04:39:58.266Z,16.39
2022-09-13T04:42:44.571Z,16.50
2022-09-13T04:45:29.880Z,16.32
2022-09-13T04:48:14.972Z,16.35
2022-09-13T04:51:04.186Z,16.35
2022-09-13T04:53:53.716Z,16.43
2022-09-13T04:56:39.009Z,16.30
2022-09-13T04:59:24.433Z,16.31
2022-09-13T05:02:09.781Z,16.35
2022-09-13T05:04:55.138Z,16.22
2022-09-13T05:07:40.477Z,16.26
2022-09-13T05:10:25.532Z,16.17
2022-09-13T05:13:10.416Z,16.25
2022-09-13T05:16:00.690Z,16.08
2022-09-13T05:18:45.711Z,15.96
2022-09-13T05:21:31.076Z,16.13
2022-09-13T05:24:16.350Z,16.19
2022-09-13T05:27:01.295Z,16.13
2022-09-13T05:29:46.145Z,16.10
2022-09-13T05:32:32.297Z,16.11
2022-09-13T05:35:17.569Z,15.99
2022-09-13T05:38:02.801Z,16.10
2022-09-13T05:40:48.436Z,16.12
2022-09-13T05:46:51.074Z,16.18
2022-09-13T05:49:49.852Z,16.11
2022-09-13T05:52:40.943Z,16.16
2022-09-13T05:55:25.937Z,16.11
2022-09-13T05:58:11.351Z,16.09
2022-09-13T06:00:57.377Z,16.29
2022-09-13T06:03:43.010Z,16.36
2022-09-13T06:06:28.087Z,16.45
2022-09-13T06:09:12.995Z,16.51
2022-09-13T06:11:57.752Z,16.59
2022-09-13T06:14:42.646Z,16.68
2022-09-13T06:17:27.496Z,16.69
2022-09-13T06:20:12.927Z,16.83
2022-09-13T06:22:57.867Z,16.90
2022-09-13T06:25:43.002Z,17.01
2022-09-13T06:28:28.472Z,16.99
2022-09-13T06:31:15.972Z,17.02
2022-09-13T06:34:02.031Z,17.04
2022-09-13T06:36:47.237Z,17.22
2022-09-13T06:39:32.134Z,17.28
2022-09-13T06:42:17.468Z,17.39
2022-09-13T06:45:03.660Z,17.54
2022-09-13T06:47:49.160Z,17.59
2022-09-13T06:50:33.996Z,17.52
2022-09-13T06:53:19.340Z,17.51
2022-09-13T06:56:08.760Z,17.41
2022-09-13T06:58:59.005Z,17.50
2022-09-13T07:01:44.437Z,17.43
2022-09-13T07:04:29.754Z,17.29
2022-09-13T07:07:14.618Z,17.37
2022-09-13T07:09:59.426Z,17.38
2022-09-13T07:12:44.411Z,17.57
2022-09-13T07:15:29.758Z,17.74
2022-09-13T07:18:15.043Z,17.52
2022-09-13T07:21:01.886Z,17.72
2022-09-13T07:23:47.184Z,18.15
2022-09-13T07:26:32.426Z,18.34
2022-09-13T07:29:19.741Z,18.96
2022-09-13T07:32:05.105Z,19.22
2022-09-13T07:34:50.469Z,19.47
2022-09-13T07:37:35.346Z,19.31
2022-09-13T07:40:20.420Z,19.72
2022-09-13T07:43:05.691Z,20.06
2022-09-13T07:46:09.036Z,20.30
2022-09-13T07:48:56.294Z,20.46
2022-09-13T07:51:43.352Z,19.66
2022-09-13T07:54:28.250Z,19.78
2022-09-13T07:57:13.095Z,19.69
2022-09-13T07:59:58.134Z,19.67
2022-09-13T08:02:43.505Z,19.90
2022-09-13T08:05:28.688Z,20.16
2022-09-13T08:08:14.026Z,20.13
2022-09-13T08:11:00.843Z,20.45
2022-09-13T08:13:50.117Z,20.43
2022-09-13T08:16:35.442Z,20.33
2022-09-13T08:19:20.726Z,20.33
2022-09-13T08:22:05.677Z,20.21
2022-09-13T08:24:50.730Z,20.14
2022-09-13T08:27:35.875Z,20.29
2022-09-13T08:30:21.296Z,20.25
2022-09-13T08:33:06.609Z,20.29
2022-09-13T08:35:52.525Z,20.41
2022-09-13T08:38:38.124Z,20.71
2022-09-13T08:41:41.197Z,20.91
2022-09-13T08:44:28.348Z,20.96
2022-09-13T08:47:33.267Z,20.96
2022-09-13T08:50:26.245Z,20.97
2022-09-13T08:53:30.401Z,20.99
2022-09-13T08:57:06.557Z,21.03
2022-09-13T09:00:04.495Z,20.90
2022-09-13T09:03:04.946Z,20.78
2022-09-13T09:05:51.576Z,20.79
2022-09-13T09:08:43.278Z,20.79
2022-09-13T09:11:40.499Z,20.87
2022-09-13T09:14:33.472Z,20.92
2022-09-13T09:17:23.951Z,20.91
2022-09-13T09:20:27.314Z,20.66
2022-09-13T09:23:22.811Z,20.85
2022-09-13T09:26:19.964Z,20.91
2022-09-13T09:29:20.756Z,20.64
2022-09-13T09:32:17.877Z,20.56
2022-09-13T09:35:02.845Z,20.40
2022-09-13T09:38:22.869Z,20.37
2022-09-13T09:41:31.437Z,20.64
2022-09-13T09:44:19.477Z,20.68
2022-09-13T09:47:14.215Z,20.75
2022-09-13T09:50:08.703Z,20.73
2022-09-13T09:53:21.987Z,20.91
2022-09-13T09:56:30.107Z,20.88
2022-09-13T09:59:27.416Z,20.98
2022-09-13T10:02:21.360Z,21.13
2022-09-13T10:05:07.084Z,21.25
2022-09-13T10:07:55.094Z,21.38
2022-09-13T10:10:43.517Z,21.46
2022-09-13T10:13:31.904Z,21.46
2022-09-13T10:16:26.746Z,21.42
2022-09-13T10:19:24.335Z,21.52
2022-09-13T10:22:13.351Z,21.30
2022-09-13T10:25:26.922Z,21.22
2022-09-13T10:28:16.696Z,21.19
2022-09-13T10:31:04.392Z,21.28
2022-09-13T10:33:49.994Z,21.23
2022-09-13T10:36:53.326Z,21.09
2022-09-13T10:39:52.440Z,21.26
2022-09-13T10:42:37.870Z,21.49
2022-09-13T10:45:26.081Z,21.63
2022-09-13T10:48:15.880Z,21.51
2022-09-13T10:51:08.078Z,21.17
2022-09-13T10:54:23.309Z,20.99
2022-09-13T10:57:35.735Z,21.26
2022-09-13T11:00:35.022Z,21.27
2022-09-13T11:03:42.112Z,21.32
2022-09-13T11:06:27.208Z,21.47
2022-09-13T11:09:41.988Z,21.34
2022-09-13T11:12:43.075Z,20.93
2022-09-13T11:15:46.397Z,20.91
2022-09-13T11:18:50.596Z,21.22
2022-09-13T11:21:50.898Z,21.25
2022-09-13T11:24:44.185Z,21.16
2022-09-13T11:27:35.111Z,20.87
2022-09-13T11:30:26.499Z,20.92
2022-09-13T11:33:17.347Z,20.96
2022-09-13T11:36:26.975Z,21.20
2022-09-13T11:39:37.159Z,21.47
2022-09-13T11:43:01.826Z,21.24
2022-09-13T11:46:25.612Z,21.35
2022-09-13T11:49:32.545Z,21.52
2022-09-13T11:53:08.484Z,21.96
2022-09-13T11:56:01.227Z,22.14
2022-09-13T11:58:51.588Z,22.34
2022-09-13T12:01:50.802Z,22.55
2022-09-13T12:05:10.997Z,22.25
2022-09-13T12:08:02.803Z,22.56
2022-09-13T12:10:54.158Z,22.53
2022-09-13T12:13:49.965Z,22.35
2022-09-13T12:16:40.843Z,22.54
2022-09-13T12:19:36.447Z,22.31
2022-09-13T12:22:30.233Z,22.32
2022-09-13T12:25:24.100Z,22.43
2022-09-13T12:28:15.793Z,22.50
2022-09-13T12:31:29.160Z,22.81
2022-09-13T12:34:31.282Z,22.87
2022-09-13T12:37:42.107Z,22.81
2022-09-13T12:41:09.696Z,22.69
2022-09-13T12:44:03.481Z,22.63
2022-09-13T12:47:12.276Z,22.28
2022-09-13T12:50:38.116Z,22.18
2022-09-13T12:53:29.508Z,22.19
2022-09-13T12:56:39.351Z,22.26
2022-09-13T12:59:40.385Z,22.28
2022-09-13T13:02:28.040Z,22.08
2022-09-13T13:05:31.751Z,22.23
2022-09-13T13:08:19.951Z,22.14
2022-09-13T13:11:13.760Z,22.23
2022-09-13T13:14:01.583Z,22.24
2022-09-13T13:16:46.977Z,22.10
2022-09-13T13:19:35.288Z,22.29
2022-09-13T13:22:42.040Z,22.56
2022-09-13T13:25:36.717Z,22.82
2022-09-13T13:28:44.035Z,23.06
2022-09-13T13:31:28.872Z,22.98
2022-09-13T13:34:14.352Z,22.92
2022-09-13T13:37:22.745Z,22.76
2022-09-13T13:40:19.724Z,22.15
2022-09-13T13:43:26.777Z,22.59
2022-09-13T13:46:11.769Z,22.82
2022-09-13T13:49:31.869Z,22.80
2022-09-13T13:52:16.850Z,22.93
2022-09-13T13:55:23.994Z,22.72
2022-09-13T13:58:26.899Z,22.59
2022-09-13T14:01:17.710Z,22.53
2022-09-13T14:04:31.004Z,22.90
2022-09-13T14:07:33.241Z,22.87
2022-09-13T14:10:28.657Z,22.63
2022-09-13T14:13:45.329Z,22.21
2022-09-13T14:17:08.386Z,22.21
2022-09-13T14:19:58.949Z,22.50
2022-09-13T14:22:43.824Z,22.74
2022-09-13T14:25:28.670Z,22.92
2022-09-13T14:28:23.456Z,23.02
2022-09-13T14:31:17.486Z,23.23
2022-09-13T14:34:03.367Z,23.19
2022-09-13T14:36:53.728Z,23.04
2022-09-13T14:39:38.792Z,22.34
2022-09-13T14:42:24.792Z,22.72
2022-09-13T14:45:20.479Z,22.92
2022-09-13T14:48:29.850Z,22.95
2022-09-13T14:51:21.129Z,22.98
2022-09-13T14:54:15.286Z,22.92
2022-09-13T14:57:03.314Z,22.63
2022-09-13T14:59:52.585Z,22.87
2022-09-13T15:02:39.019Z,23.05
2022-09-13T15:05:27.444Z,22.83
2022-09-13T15:08:34.326Z,22.74
2022-09-13T15:11:35.145Z,22.95
2022-09-13T15:14:35.497Z,22.88
2022-09-13T15:17:21.090Z,22.77
2022-09-13T15:20:12.567Z,22.75
2022-09-13T15:22:57.829Z,22.72
2022-09-13T15:25:51.435Z,22.83
2022-09-13T15:28:43.235Z,22.65
2022-09-13T15:31:33.393Z,22.73
2022-09-13T15:34:18.713Z,22.82
2022-09-13T15:37:12.506Z,22.55
2022-09-13T15:40:22.274Z,22.55
2022-09-13T15:43:07.548Z,22.65
2022-09-13T15:45:52.768Z,22.63
2022-09-13T15:48:37.825Z,22.57
2022-09-13T15:51:22.892Z,22.63
2022-09-13T15:54:13.789Z,22.75
2022-09-13T15:56:59.221Z,22.89
2022-09-13T15:59:44.429Z,22.96
2022-09-13T16:02:32.562Z,23.06
2022-09-13T16:05:18.599Z,22.97
2022-09-13T16:08:03.862Z,22.95
2022-09-13T16:10:49.198Z,22.82
2022-09-13T16:13:34.986Z,22.76
2022-09-13T16:16:20.365Z,22.37
2022-09-13T16:19:05.624Z,22.50
2022-09-13T16:21:50.852Z,22.51
2022-09-13T16:24:35.839Z,22.44
2022-09-13T16:27:21.025Z,22.61
2022-09-13T16:30:07.287Z,22.74
2022-09-13T16:32:52.749Z,22.83
2022-09-13T16:35:37.710Z,22.65
2022-09-13T16:38:23.330Z,22.57
2022-09-13T16:41:08.872Z,22.50
2022-09-13T16:43:54.965Z,22.37
2022-09-13T16:46:40.249Z,22.42
2022-09-13T16:49:25.995Z,22.35
2022-09-13T16:52:11.159Z,22.22
2022-09-13T16:54:55.934Z,22.07
2022-09-13T16:57:40.711Z,21.99
2022-09-13T17:00:25.747Z,21.88
2022-09-13T17:03:10.993Z,22.00
2022-09-13T17:06:01.034Z,21.80
2022-09-13T17:08:50.146Z,21.90
2022-09-13T17:11:38.650Z,21.82
2022-09-13T17:14:23.954Z,21.81
2022-09-13T17:17:09.344Z,21.73
2022-09-13T17:19:54.835Z,21.65
2022-09-13T17:22:41.056Z,21.55
2022-09-13T17:25:26.350Z,21.49
2022-09-13T17:28:14.985Z,21.43
2022-09-13T17:31:02.501Z,21.31
2022-09-13T17:33:48.192Z,21.23
2022-09-13T17:36:33.471Z,21.11
2022-09-13T17:39:19.563Z,21.02
2022-09-13T17:42:04.883Z,21.03
2022-09-13T17:44:50.407Z,20.91
2022-09-13T17:47:35.313Z,20.66
2022-09-13T17:50:20.939Z,20.53
2022-09-13T17:53:06.037Z,20.52
2022-09-13T17:55:51.418Z,20.54
2022-09-13T17:58:36.587Z,20.59
2022-09-13T18:01:21.998Z,20.26
2022-09-13T18:04:07.872Z,19.97
2022-09-13T18:06:53.326Z,20.01
2022-09-13T18:09:38.344Z,19.90
2022-09-13T18:12:23.436Z,19.97
2022-09-13T18:15:09.256Z,20.00
2022-09-13T18:17:53.976Z,19.83
2022-09-13T18:20:44.988Z,20.17
2022-09-13T18:23:31.537Z,20.16
2022-09-13T18:26:18.898Z,20.06
2022-09-13T18:29:06.972Z,20.00
2022-09-13T18:31:52.103Z,20.04
2022-09-13T18:34:37.844Z,19.98
2022-09-13T18:37:22.914Z,19.97
2022-09-13T18:40:08.279Z,19.86
2022-09-13T18:42:54.583Z,19.90
2022-09-13T18:45:39.925Z,19.83
2022-09-13T18:48:28.648Z,19.78
2022-09-13T18:51:19.605Z,19.61
2022-09-13T18:54:06.599Z,19.61
2022-09-13T18:56:53.770Z,19.37
2022-09-13T18:59:38.705Z,19.34
2022-09-13T19:02:24.467Z,19.18
2022-09-13T19:05:09.806Z,19.06
2022-09-13T19:07:54.674Z,18.71
2022-09-13T19:10:39.646Z,18.62
2022-09-13T19:13:24.613Z,18.60
2022-09-13T19:16:14.049Z,18.55
2022-09-13T19:18:59.495Z,18.66
2022-09-13T19:21:44.802Z,18.63
2022-09-13T19:24:30.132Z,18.70
2022-09-13T19:27:15.633Z,18.70
2022-09-13T19:30:00.957Z,18.74
2022-09-13T19:32:46.177Z,18.54
2022-09-13T19:35:31.032Z,18.22
2022-09-13T19:38:16.097Z,18.09
2022-09-13T19:41:04.336Z,17.93
2022-09-13T19:43:50.955Z,17.76
2022-09-13T19:46:39.024Z,17.67
2022-09-13T19:49:24.346Z,17.63
2022-09-13T19:52:09.904Z,17.39
2022-09-13T19:54:54.883Z,17.23
2022-09-13T19:57:44.316Z,17.48
2022-09-13T20:00:30.163Z,17.45
2022-09-13T20:03:15.872Z,17.32
2022-09-13T20:06:02.793Z,17.47
2022-09-13T20:08:47.899Z,17.45
2022-09-13T20:11:33.081Z,17.56
2022-09-13T20:14:19.748Z,17.39
2022-09-13T20:17:05.453Z,17.47
2022-09-13T20:19:50.565Z,17.74
2022-09-13T20:22:35.908Z,17.87
2022-09-13T20:25:21.739Z,17.90
2022-09-13T20:28:06.590Z,17.84
2022-09-13T20:30:59.416Z,17.82
2022-09-13T20:33:44.527Z,17.86
2022-09-13T20:36:31.680Z,17.81
2022-09-13T20:39:16.788Z,17.65
2022-09-13T20:42:02.193Z,17.43
2022-09-13T20:44:46.984Z,17.31
2022-09-13T20:47:31.926Z,17.23
2022-09-13T20:50:16.734Z,17.24
2022-09-13T20:53:01.549Z,17.18
2022-09-13T20:55:46.342Z,17.16
2022-09-13T20:58:32.170Z,17.18
2022-09-13T21:01:19.168Z,17.26
2022-09-13T21:04:05.020Z,17.25
2022-09-13T21:06:50.295Z,17.31
2022-09-13T21:09:35.762Z,17.10
2022-09-13T21:12:20.978Z,17.19
2022-09-13T21:15:06.300Z,17.01
2022-09-13T21:17:51.417Z,17.03
2022-09-13T21:20:36.516Z,17.02
2022-09-13T21:23:21.809Z,17.05
2022-09-13T21:26:10.445Z,16.94
2022-09-13T21:28:56.555Z,16.88
2022-09-13T21:31:41.637Z,16.91
2022-09-13T21:34:28.195Z,17.07
2022-09-13T21:37:13.305Z,16.93
2022-09-13T21:39:58.431Z,16.93
2022-09-13T21:42:43.797Z,16.83
2022-09-13T21:45:28.629Z,16.90
2022-09-13T21:48:13.537Z,17.04
2022-09-13T21:51:17.489Z,16.99
2022-09-13T21:54:05.202Z,16.98
2022-09-13T21:56:52.476Z,16.90
2022-09-13T21:59:37.582Z,16.94
2022-09-13T22:02:22.603Z,16.93
2022-09-13T22:05:08.297Z,16.91
2022-09-13T22:07:53.727Z,16.79
2022-09-13T22:10:38.895Z,16.71
2022-09-13T22:13:23.751Z,16.70
2022-09-13T22:16:09.591Z,16.73
2022-09-13T22:19:10.914Z,16.81
2022-09-13T22:21:58.514Z,16.73
2022-09-13T22:24:43.861Z,16.79
2022-09-13T22:27:29.456Z,16.75
2022-09-13T22:30:14.637Z,16.69
2022-09-13T22:32:59.957Z,16.65
2022-09-13T22:35:44.874Z,16.74
2022-09-13T22:38:30.341Z,16.61
2022-09-13T22:41:19.203Z,16.54
2022-09-13T22:44:04.391Z,16.61
2022-09-13T22:46:49.618Z,16.53
2022-09-13T22:49:34.932Z,16.61
2022-09-13T22:52:19.811Z,16.50
2022-09-13T22:55:05.206Z,16.43
2022-09-13T22:57:52.770Z,16.35
2022-09-13T23:00:37.966Z,16.43
2022-09-13T23:03:22.912Z,16.39
2022-09-13T23:06:09.562Z,16.23
2022-09-13T23:08:57.245Z,16.29
2022-09-13T23:11:42.741Z,16.26
2022-09-13T23:14:27.591Z,16.13
2022-09-13T23:17:12.420Z,16.09
2022-09-13T23:19:57.593Z,16.03
2022-09-13T23:22:42.776Z,16.10
2022-09-13T23:25:27.959Z,16.04
2022-09-13T23:28:13.166Z,16.04
2022-09-13T23:31:18.006Z,15.97
2022-09-13T23:34:05.780Z,15.87
2022-09-13T23:36:50.895Z,15.89
2022-09-13T23:39:36.181Z,15.98
2022-09-13T23:42:21.041Z,16.07
2022-09-13T23:45:06.559Z,16.08
2022-09-13T23:47:51.749Z,16.01
2022-09-13T23:50:36.682Z,16.12
2022-09-13T23:53:21.601Z,16.23
2022-09-13T23:56:07.337Z,16.30
2022-09-13T23:58:52.452Z,16.13
